sensor_id;sensor_type;location;lat;lon;timestamp;pressure;altitude;pressure_sealevel;temperature;humidity
62038;BME280;47991;42.974;12.082;2023-05-19T00:01:13;97796.82;;;13.61;90.19
62038;BME280;47991;42.974;12.082;2023-05-19T00:03:56;97791.58;;;13.59;90.60
62038;BME280;47991;42.974;12.082;2023-05-19T00:06:25;97786.16;;;13.56;89.77
62038;BME280;47991;42.974;12.082;2023-05-19T00:08:57;97785.33;;;13.60;90.39
62038;BME280;47991;42.974;12.082;2023-05-19T00:11:25;97788.19;;;13.59;90.53
62038;BME280;47991;42.974;12.082;2023-05-19T00:13:53;97779.67;;;13.59;90.90
62038;BME280;47991;42.974;12.082;2023-05-19T00:16:21;97779.60;;;13.61;90.26
62038;BME280;47991;42.974;12.082;2023-05-19T00:18:48;97771.16;;;13.63;90.00
62038;BME280;47991;42.974;12.082;2023-05-19T00:21:14;97770.88;;;13.66;89.90
62038;BME280;47991;42.974;12.082;2023-05-19T00:23:42;97775.75;;;13.64;90.84
62038;BME280;47991;42.974;12.082;2023-05-19T00:26:09;97775.18;;;13.56;90.78
62038;BME280;47991;42.974;12.082;2023-05-19T00:28:35;97776.77;;;13.56;90.74
62038;BME280;47991;42.974;12.082;2023-05-19T00:31:03;97776.36;;;13.57;90.34
62038;BME280;47991;42.974;12.082;2023-05-19T00:33:30;97778.45;;;13.58;90.07
62038;BME280;47991;42.974;12.082;2023-05-19T00:36:02;97774.44;;;13.61;89.90
62038;BME280;47991;42.974;12.082;2023-05-19T00:38:34;97771.77;;;13.61;89.72
62038;BME280;47991;42.974;12.082;2023-05-19T00:41:01;97767.58;;;13.63;89.76
62038;BME280;47991;42.974;12.082;2023-05-19T00:43:28;97768.24;;;13.65;89.64
62038;BME280;47991;42.974;12.082;2023-05-19T00:45:56;97764.27;;;13.66;89.92
62038;BME280;47991;42.974;12.082;2023-05-19T00:48:23;97761.21;;;13.67;89.65
62038;BME280;47991;42.974;12.082;2023-05-19T00:50:52;97762.76;;;13.69;89.71
62038;BME280;47991;42.974;12.082;2023-05-19T00:53:22;97759.35;;;13.70;89.68
62038;BME280;47991;42.974;12.082;2023-05-19T00:55:48;97758.64;;;13.70;89.64
62038;BME280;47991;42.974;12.082;2023-05-19T00:58:15;97758.19;;;13.67;89.61
62038;BME280;47991;42.974;12.082;2023-05-19T01:00:41;97756.45;;;13.67;89.47
62038;BME280;47991;42.974;12.082;2023-05-19T01:03:08;97757.34;;;13.66;89.49
62038;BME280;47991;42.974;12.082;2023-05-19T01:05:39;97755.08;;;13.61;90.24
62038;BME280;47991;42.974;12.082;2023-05-19T01:08:07;97756.52;;;13.51;91.25
62038;BME280;47991;42.974;12.082;2023-05-19T01:10:33;97752.64;;;13.46;91.01
62038;BME280;47991;42.974;12.082;2023-05-19T01:13:04;97749.36;;;13.48;90.61
62038;BME280;47991;42.974;12.082;2023-05-19T01:15:37;97747.16;;;13.50;90.31
62038;BME280;47991;42.974;12.082;2023-05-19T01:18:13;97742.34;;;13.51;90.12
62038;BME280;47991;42.974;12.082;2023-05-19T01:20:44;97744.14;;;13.51;90.10
62038;BME280;47991;42.974;12.082;2023-05-19T01:31:22;97736.48;;;13.42;90.00
62038;BME280;47991;42.974;12.082;2023-05-19T01:33:52;97731.50;;;13.42;89.99
62038;BME280;47991;42.974;12.082;2023-05-19T01:36:20;97727.80;;;13.41;89.95
62038;BME280;47991;42.974;12.082;2023-05-19T01:38:50;97726.77;;;13.41;89.59
62038;BME280;47991;42.974;12.082;2023-05-19T01:41:18;97726.91;;;13.37;89.45
62038;BME280;47991;42.974;12.082;2023-05-19T01:43:48;97729.35;;;13.34;89.49
62038;BME280;47991;42.974;12.082;2023-05-19T01:46:15;97737.88;;;13.29;89.90
62038;BME280;47991;42.974;12.082;2023-05-19T01:48:42;97740.30;;;13.07;91.63
62038;BME280;47991;42.974;12.082;2023-05-19T01:51:09;97741.83;;;12.95;91.93
62038;BME280;47991;42.974;12.082;2023-05-19T01:53:36;97741.00;;;12.98;91.16
62038;BME280;47991;42.974;12.082;2023-05-19T01:56:03;97741.11;;;13.00;90.59
62038;BME280;47991;42.974;12.082;2023-05-19T01:58:44;97737.10;;;12.98;91.63
62038;BME280;47991;42.974;12.082;2023-05-19T02:01:32;97739.14;;;12.91;92.61
62038;BME280;47991;42.974;12.082;2023-05-19T02:09:37;97748.34;;;12.92;91.52
62038;BME280;47991;42.974;12.082;2023-05-19T02:17:29;97744.50;;;12.95;91.21
62038;BME280;47991;42.974;12.082;2023-05-19T02:20:02;97740.88;;;12.93;91.10
62038;BME280;47991;42.974;12.082;2023-05-19T02:22:30;97738.16;;;12.94;91.06
62038;BME280;47991;42.974;12.082;2023-05-19T02:24:56;97740.03;;;12.91;90.59
62038;BME280;47991;42.974;12.082;2023-05-19T02:27:23;97742.42;;;12.89;90.45
62038;BME280;47991;42.974;12.082;2023-05-19T02:29:49;97747.42;;;12.84;90.71
62038;BME280;47991;42.974;12.082;2023-05-19T02:32:16;97745.02;;;12.77;90.70
62038;BME280;47991;42.974;12.082;2023-05-19T02:34:43;97746.69;;;12.75;90.58
62038;BME280;47991;42.974;12.082;2023-05-19T02:37:12;97746.37;;;12.74;90.52
62038;BME280;47991;42.974;12.082;2023-05-19T02:39:40;97742.90;;;12.72;90.62
62038;BME280;47991;42.974;12.082;2023-05-19T02:42:06;97735.67;;;12.70;90.45
62038;BME280;47991;42.974;12.082;2023-05-19T02:44:34;97734.81;;;12.69;90.44
62038;BME280;47991;42.974;12.082;2023-05-19T02:47:00;97731.88;;;12.67;90.48
62038;BME280;47991;42.974;12.082;2023-05-19T02:49:27;97729.91;;;12.68;90.31
62038;BME280;47991;42.974;12.082;2023-05-19T02:51:56;97732.11;;;12.66;90.06
62038;BME280;47991;42.974;12.082;2023-05-19T02:54:22;97733.45;;;12.63;90.19
62038;BME280;47991;42.974;12.082;2023-05-19T02:56:48;97727.41;;;12.59;90.49
62038;BME280;47991;42.974;12.082;2023-05-19T02:59:15;97728.23;;;12.51;90.56
62038;BME280;47991;42.974;12.082;2023-05-19T03:01:41;97725.46;;;12.49;90.75
62038;BME280;47991;42.974;12.082;2023-05-19T03:04:07;97730.27;;;12.48;90.83
62038;BME280;47991;42.974;12.082;2023-05-19T03:06:34;97731.73;;;12.42;90.88
62038;BME280;47991;42.974;12.082;2023-05-19T03:09:01;97735.73;;;12.35;90.65
62038;BME280;47991;42.974;12.082;2023-05-19T03:11:27;97735.46;;;12.27;91.17
62038;BME280;47991;42.974;12.082;2023-05-19T03:13:54;97729.40;;;12.13;92.14
62038;BME280;47991;42.974;12.082;2023-05-19T03:16:20;97727.67;;;12.07;92.96
62038;BME280;47991;42.974;12.082;2023-05-19T03:18:47;97726.77;;;12.07;92.24
62038;BME280;47991;42.974;12.082;2023-05-19T03:21:13;97727.42;;;12.09;91.57
62038;BME280;47991;42.974;12.082;2023-05-19T03:23:39;97724.27;;;12.13;91.72
62038;BME280;47991;42.974;12.082;2023-05-19T03:26:06;97722.77;;;12.15;91.47
62038;BME280;47991;42.974;12.082;2023-05-19T03:28:32;97721.08;;;12.23;91.26
62038;BME280;47991;42.974;12.082;2023-05-19T03:30:58;97720.28;;;12.26;91.08
62038;BME280;47991;42.974;12.082;2023-05-19T03:33:24;97726.70;;;12.20;91.37
62038;BME280;47991;42.974;12.082;2023-05-19T03:35:53;97724.32;;;12.07;91.17
62038;BME280;47991;42.974;12.082;2023-05-19T03:38:19;97724.73;;;12.00;92.20
62038;BME280;47991;42.974;12.082;2023-05-19T03:40:45;97727.99;;;11.93;92.69
62038;BME280;47991;42.974;12.082;2023-05-19T03:43:11;97726.88;;;11.99;92.32
62038;BME280;47991;42.974;12.082;2023-05-19T03:45:38;97730.91;;;12.05;92.07
62038;BME280;47991;42.974;12.082;2023-05-19T03:48:04;97732.50;;;12.11;91.62
62038;BME280;47991;42.974;12.082;2023-05-19T03:50:31;97735.21;;;12.14;91.35
62038;BME280;47991;42.974;12.082;2023-05-19T03:52:59;97735.87;;;12.16;91.47
62038;BME280;47991;42.974;12.082;2023-05-19T03:55:26;97736.69;;;12.07;92.09
62038;BME280;47991;42.974;12.082;2023-05-19T03:57:55;97737.95;;;12.02;91.59
62038;BME280;47991;42.974;12.082;2023-05-19T04:00:22;97733.00;;;12.02;91.28
62038;BME280;47991;42.974;12.082;2023-05-19T04:02:48;97735.17;;;12.06;91.41
62038;BME280;47991;42.974;12.082;2023-05-19T04:05:16;97735.75;;;12.09;91.28
62038;BME280;47991;42.974;12.082;2023-05-19T04:07:42;97737.05;;;12.12;91.34
62038;BME280;47991;42.974;12.082;2023-05-19T04:10:10;97740.98;;;12.17;91.36
62038;BME280;47991;42.974;12.082;2023-05-19T04:12:37;97738.88;;;12.21;91.07
62038;BME280;47991;42.974;12.082;2023-05-19T04:15:04;97740.58;;;12.23;90.96
62038;BME280;47991;42.974;12.082;2023-05-19T04:17:36;97744.59;;;12.20;90.93
62038;BME280;47991;42.974;12.082;2023-05-19T04:20:03;97742.64;;;12.15;91.80
62038;BME280;47991;42.974;12.082;2023-05-19T04:22:32;97743.13;;;12.16;91.78
62038;BME280;47991;42.974;12.082;2023-05-19T04:24:59;97743.84;;;12.16;91.62
62038;BME280;47991;42.974;12.082;2023-05-19T04:27:25;97743.60;;;12.12;91.65
62038;BME280;47991;42.974;12.082;2023-05-19T04:29:54;97743.67;;;12.10;91.94
62038;BME280;47991;42.974;12.082;2023-05-19T04:32:21;97743.98;;;12.07;92.03
62038;BME280;47991;42.974;12.082;2023-05-19T04:34:47;97746.25;;;12.03;93.05
62038;BME280;47991;42.974;12.082;2023-05-19T04:37:14;97746.82;;;12.07;92.24
62038;BME280;47991;42.974;12.082;2023-05-19T04:39:43;97746.44;;;12.08;91.47
62038;BME280;47991;42.974;12.082;2023-05-19T04:42:10;97746.94;;;12.09;91.83
62038;BME280;47991;42.974;12.082;2023-05-19T04:44:38;97739.60;;;12.10;91.73
62038;BME280;47991;42.974;12.082;2023-05-19T04:47:08;97741.39;;;12.15;91.48
62038;BME280;47991;42.974;12.082;2023-05-19T04:49:35;97745.27;;;12.21;91.13
62038;BME280;47991;42.974;12.082;2023-05-19T04:54:36;97749.20;;;12.30;91.20
62038;BME280;47991;42.974;12.082;2023-05-19T04:57:03;97745.34;;;12.34;90.86
62038;BME280;47991;42.974;12.082;2023-05-19T04:59:30;97744.25;;;12.35;90.44
62038;BME280;47991;42.974;12.082;2023-05-19T05:01:57;97740.48;;;12.36;90.62
62038;BME280;47991;42.974;12.082;2023-05-19T05:04:23;97743.96;;;12.33;90.98
62038;BME280;47991;42.974;12.082;2023-05-19T05:06:49;97745.09;;;12.31;91.09
62038;BME280;47991;42.974;12.082;2023-05-19T05:09:16;97751.56;;;12.33;91.82
62038;BME280;47991;42.974;12.082;2023-05-19T05:11:43;97750.08;;;12.30;91.96
62038;BME280;47991;42.974;12.082;2023-05-19T05:14:11;97749.33;;;12.26;93.13
62038;BME280;47991;42.974;12.082;2023-05-19T05:16:37;97749.44;;;12.23;93.14
62038;BME280;47991;42.974;12.082;2023-05-19T05:19:04;97752.79;;;12.29;92.47
62038;BME280;47991;42.974;12.082;2023-05-19T05:21:31;97753.02;;;12.32;92.88
62038;BME280;47991;42.974;12.082;2023-05-19T05:23:58;97752.06;;;12.34;92.27
62038;BME280;47991;42.974;12.082;2023-05-19T05:26:27;97749.58;;;12.39;91.77
62038;BME280;47991;42.974;12.082;2023-05-19T05:28:55;97753.10;;;12.45;91.48
62038;BME280;47991;42.974;12.082;2023-05-19T05:31:21;97753.81;;;12.50;91.46
62038;BME280;47991;42.974;12.082;2023-05-19T05:33:47;97752.20;;;12.55;91.14
62038;BME280;47991;42.974;12.082;2023-05-19T05:36:14;97752.38;;;12.60;91.00
62038;BME280;47991;42.974;12.082;2023-05-19T05:38:40;97751.84;;;12.65;90.96
62038;BME280;47991;42.974;12.082;2023-05-19T05:41:06;97752.13;;;12.57;91.00
62038;BME280;47991;42.974;12.082;2023-05-19T05:43:33;97750.73;;;12.46;90.79
62038;BME280;47991;42.974;12.082;2023-05-19T05:45:59;97750.22;;;12.51;91.08
62038;BME280;47991;42.974;12.082;2023-05-19T05:48:25;97749.44;;;12.48;91.55
62038;BME280;47991;42.974;12.082;2023-05-19T05:50:52;97755.50;;;12.42;92.17
62038;BME280;47991;42.974;12.082;2023-05-19T05:53:20;97757.61;;;12.43;92.10
62038;BME280;47991;42.974;12.082;2023-05-19T05:55:47;97751.69;;;12.50;92.25
62038;BME280;47991;42.974;12.082;2023-05-19T05:58:14;97749.25;;;12.58;91.77
62038;BME280;47991;42.974;12.082;2023-05-19T06:00:42;97749.16;;;12.65;91.26
62038;BME280;47991;42.974;12.082;2023-05-19T06:03:08;97751.09;;;12.71;90.99
62038;BME280;47991;42.974;12.082;2023-05-19T06:05:36;97754.21;;;12.72;91.31
62038;BME280;47991;42.974;12.082;2023-05-19T06:08:03;97756.44;;;12.70;91.69
62038;BME280;47991;42.974;12.082;2023-05-19T06:10:29;97756.27;;;12.74;91.52
62038;BME280;47991;42.974;12.082;2023-05-19T06:12:56;97756.52;;;12.82;90.85
62038;BME280;47991;42.974;12.082;2023-05-19T06:15:23;97756.91;;;12.86;89.99
62038;BME280;47991;42.974;12.082;2023-05-19T06:17:49;97759.52;;;12.87;90.10
62038;BME280;47991;42.974;12.082;2023-05-19T06:20:16;97756.63;;;12.89;90.38
62038;BME280;47991;42.974;12.082;2023-05-19T06:22:43;97754.34;;;12.93;90.24
62038;BME280;47991;42.974;12.082;2023-05-19T06:25:09;97756.70;;;12.96;89.77
62038;BME280;47991;42.974;12.082;2023-05-19T06:27:36;97757.17;;;12.98;90.06
62038;BME280;47991;42.974;12.082;2023-05-19T06:30:02;97757.24;;;13.01;89.96
62038;BME280;47991;42.974;12.082;2023-05-19T06:32:29;97759.84;;;13.02;89.79
62038;BME280;47991;42.974;12.082;2023-05-19T06:34:55;97757.58;;;13.01;89.79
62038;BME280;47991;42.974;12.082;2023-05-19T06:37:22;97757.32;;;13.03;90.22
62038;BME280;47991;42.974;12.082;2023-05-19T06:39:52;97759.65;;;13.12;89.90
62038;BME280;47991;42.974;12.082;2023-05-19T06:42:19;97761.69;;;13.19;89.64
62038;BME280;47991;42.974;12.082;2023-05-19T06:44:48;97759.34;;;13.24;89.60
62038;BME280;47991;42.974;12.082;2023-05-19T06:47:15;97759.61;;;13.32;89.51
62038;BME280;47991;42.974;12.082;2023-05-19T06:49:42;97760.47;;;13.37;89.23
62038;BME280;47991;42.974;12.082;2023-05-19T06:52:09;97760.38;;;13.39;89.10
62038;BME280;47991;42.974;12.082;2023-05-19T06:54:35;97763.11;;;13.42;89.04
62038;BME280;47991;42.974;12.082;2023-05-19T06:57:02;97764.10;;;13.44;88.55
62038;BME280;47991;42.974;12.082;2023-05-19T06:59:29;97763.82;;;13.47;88.78
62038;BME280;47991;42.974;12.082;2023-05-19T07:01:55;97767.72;;;13.42;88.06
62038;BME280;47991;42.974;12.082;2023-05-19T07:04:21;97765.72;;;13.35;87.65
62038;BME280;47991;42.974;12.082;2023-05-19T07:06:47;97762.70;;;13.30;88.07
62038;BME280;47991;42.974;12.082;2023-05-19T07:09:15;97762.10;;;13.36;88.49
62038;BME280;47991;42.974;12.082;2023-05-19T07:11:42;97762.30;;;13.40;87.88
62038;BME280;47991;42.974;12.082;2023-05-19T07:14:08;97764.25;;;13.45;88.05
62038;BME280;47991;42.974;12.082;2023-05-19T07:16:34;97767.17;;;13.46;88.59
62038;BME280;47991;42.974;12.082;2023-05-19T07:19:00;97769.12;;;13.47;88.51
62038;BME280;47991;42.974;12.082;2023-05-19T07:21:27;97766.66;;;13.42;88.36
62038;BME280;47991;42.974;12.082;2023-05-19T07:23:53;97759.22;;;13.42;89.44
62038;BME280;47991;42.974;12.082;2023-05-19T07:26:19;97757.26;;;13.46;89.36
62038;BME280;47991;42.974;12.082;2023-05-19T07:28:47;97753.10;;;13.48;89.50
62038;BME280;47991;42.974;12.082;2023-05-19T07:31:15;97756.17;;;13.51;89.61
62038;BME280;47991;42.974;12.082;2023-05-19T07:33:42;97757.60;;;13.56;89.45
62038;BME280;47991;42.974;12.082;2023-05-19T07:36:08;97759.34;;;13.61;89.57
62038;BME280;47991;42.974;12.082;2023-05-19T07:38:34;97759.23;;;13.59;89.66
62038;BME280;47991;42.974;12.082;2023-05-19T07:41:01;97760.77;;;13.52;89.28
62038;BME280;47991;42.974;12.082;2023-05-19T07:43:28;97761.54;;;13.46;90.59
62038;BME280;47991;42.974;12.082;2023-05-19T07:45:55;97763.00;;;13.50;90.74
62038;BME280;47991;42.974;12.082;2023-05-19T07:48:22;97767.31;;;13.53;90.48
62038;BME280;47991;42.974;12.082;2023-05-19T07:50:51;97770.55;;;13.52;90.98
62038;BME280;47991;42.974;12.082;2023-05-19T07:53:18;97773.10;;;13.45;89.82
62038;BME280;47991;42.974;12.082;2023-05-19T07:55:45;97771.30;;;13.46;89.67
62038;BME280;47991;42.974;12.082;2023-05-19T07:58:12;97775.65;;;13.48;89.03
62038;BME280;47991;42.974;12.082;2023-05-19T08:00:39;97772.44;;;13.49;89.04
62038;BME280;47991;42.974;12.082;2023-05-19T08:03:11;97771.87;;;13.54;89.08
62038;BME280;47991;42.974;12.082;2023-05-19T08:05:38;97771.20;;;13.62;89.43
62038;BME280;47991;42.974;12.082;2023-05-19T08:08:04;97765.88;;;13.71;89.40
62038;BME280;47991;42.974;12.082;2023-05-19T08:10:31;97765.41;;;13.78;88.84
62038;BME280;47991;42.974;12.082;2023-05-19T08:12:57;97762.89;;;13.83;88.19
62038;BME280;47991;42.974;12.082;2023-05-19T08:15:23;97763.80;;;13.86;87.95
62038;BME280;47991;42.974;12.082;2023-05-19T08:17:50;97766.83;;;13.91;87.58
62038;BME280;47991;42.974;12.082;2023-05-19T08:20:16;97770.32;;;13.96;87.55
62038;BME280;47991;42.974;12.082;2023-05-19T08:22:43;97774.05;;;14.05;86.94
62038;BME280;47991;42.974;12.082;2023-05-19T08:25:09;97774.17;;;14.10;86.70
62038;BME280;47991;42.974;12.082;2023-05-19T08:27:36;97774.05;;;14.17;86.36
62038;BME280;47991;42.974;12.082;2023-05-19T08:30:03;97764.21;;;14.23;86.04
62038;BME280;47991;42.974;12.082;2023-05-19T08:32:29;97769.36;;;14.28;85.72
62038;BME280;47991;42.974;12.082;2023-05-19T08:34:56;97771.52;;;14.31;85.81
62038;BME280;47991;42.974;12.082;2023-05-19T08:37:22;97772.30;;;14.33;85.61
62038;BME280;47991;42.974;12.082;2023-05-19T08:39:48;97771.77;;;14.34;85.24
62038;BME280;47991;42.974;12.082;2023-05-19T08:42:15;97770.15;;;14.34;84.93
62038;BME280;47991;42.974;12.082;2023-05-19T08:44:41;97771.36;;;14.34;85.17
62038;BME280;47991;42.974;12.082;2023-05-19T08:47:09;97764.45;;;14.38;85.40
62038;BME280;47991;42.974;12.082;2023-05-19T08:49:43;97765.85;;;14.43;85.64
62038;BME280;47991;42.974;12.082;2023-05-19T08:55:12;97763.36;;;14.55;85.86
62038;BME280;47991;42.974;12.082;2023-05-19T08:57:40;97768.32;;;14.60;85.75
62038;BME280;47991;42.974;12.082;2023-05-19T09:00:07;97768.61;;;14.66;85.71
62038;BME280;47991;42.974;12.082;2023-05-19T09:02:37;97773.11;;;14.68;85.53
62038;BME280;47991;42.974;12.082;2023-05-19T09:05:04;97764.86;;;14.70;85.07
62038;BME280;47991;42.974;12.082;2023-05-19T09:07:31;97770.52;;;14.74;84.90
62038;BME280;47991;42.974;12.082;2023-05-19T09:10:00;97772.30;;;14.78;84.78
62038;BME280;47991;42.974;12.082;2023-05-19T09:12:27;97773.86;;;14.80;84.25
62038;BME280;47991;42.974;12.082;2023-05-19T09:14:53;97778.14;;;14.79;84.57
62038;BME280;47991;42.974;12.082;2023-05-19T09:17:20;97775.59;;;14.81;84.55
62038;BME280;47991;42.974;12.082;2023-05-19T09:19:46;97772.12;;;14.83;84.49
62038;BME280;47991;42.974;12.082;2023-05-19T09:22:15;97765.90;;;14.86;83.43
62038;BME280;47991;42.974;12.082;2023-05-19T09:24:44;97762.03;;;14.89;83.54
62038;BME280;47991;42.974;12.082;2023-05-19T09:27:13;97760.38;;;14.94;83.52
62038;BME280;47991;42.974;12.082;2023-05-19T09:29:40;97759.27;;;15.03;83.20
62038;BME280;47991;42.974;12.082;2023-05-19T09:32:06;97763.01;;;15.14;82.33
62038;BME280;47991;42.974;12.082;2023-05-19T09:34:33;97760.64;;;15.27;82.55
62038;BME280;47991;42.974;12.082;2023-05-19T09:36:59;97761.52;;;15.42;82.22
62038;BME280;47991;42.974;12.082;2023-05-19T09:39:25;97757.50;;;15.55;82.19
62038;BME280;47991;42.974;12.082;2023-05-19T09:41:54;97753.77;;;15.62;80.81
62038;BME280;47991;42.974;12.082;2023-05-19T09:44:26;97756.01;;;15.60;80.22
62038;BME280;47991;42.974;12.082;2023-05-19T09:46:56;97755.23;;;15.58;81.55
62038;BME280;47991;42.974;12.082;2023-05-19T09:49:25;97755.48;;;15.67;80.73
62038;BME280;47991;42.974;12.082;2023-05-19T09:51:55;97752.02;;;15.91;80.32
62038;BME280;47991;42.974;12.082;2023-05-19T09:54:23;97750.86;;;16.14;79.20
62038;BME280;47991;42.974;12.082;2023-05-19T09:57:00;97750.80;;;16.40;79.79
62038;BME280;47991;42.974;12.082;2023-05-19T09:59:28;97751.42;;;16.62;78.88
62038;BME280;47991;42.974;12.082;2023-05-19T10:01:56;97753.50;;;16.76;78.65
62038;BME280;47991;42.974;12.082;2023-05-19T10:04:24;97757.19;;;16.81;76.28
62038;BME280;47991;42.974;12.082;2023-05-19T10:18:25;97757.05;;;17.99;69.74
62038;BME280;47991;42.974;12.082;2023-05-19T10:20:53;97750.45;;;18.05;69.65
62038;BME280;47991;42.974;12.082;2023-05-19T10:23:20;97747.23;;;18.05;70.78
62038;BME280;47991;42.974;12.082;2023-05-19T10:25:48;97744.41;;;18.05;68.59
62038;BME280;47991;42.974;12.082;2023-05-19T10:28:17;97747.99;;;18.11;71.16
62038;BME280;47991;42.974;12.082;2023-05-19T10:30:48;97747.50;;;18.16;71.40
62038;BME280;47991;42.974;12.082;2023-05-19T10:33:17;97747.52;;;18.12;70.23
62038;BME280;47991;42.974;12.082;2023-05-19T10:39:14;97752.45;;;18.02;72.02
62038;BME280;47991;42.974;12.082;2023-05-19T10:42:15;97754.56;;;17.96;70.79
62038;BME280;47991;42.974;12.082;2023-05-19T10:47:12;97751.20;;;17.67;69.82
62038;BME280;47991;42.974;12.082;2023-05-19T10:49:39;97754.09;;;17.54;70.63
62038;BME280;47991;42.974;12.082;2023-05-19T10:52:19;97748.68;;;17.51;72.23
62038;BME280;47991;42.974;12.082;2023-05-19T10:54:53;97748.59;;;17.44;71.49
62038;BME280;47991;42.974;12.082;2023-05-19T10:57:26;97749.98;;;17.45;72.84
62038;BME280;47991;42.974;12.082;2023-05-19T10:59:54;97749.44;;;17.41;72.28
62038;BME280;47991;42.974;12.082;2023-05-19T11:02:39;97753.59;;;17.44;72.01
62038;BME280;47991;42.974;12.082;2023-05-19T11:05:14;97748.55;;;17.41;71.35
62038;BME280;47991;42.974;12.082;2023-05-19T11:07:54;97749.92;;;17.33;71.86
62038;BME280;47991;42.974;12.082;2023-05-19T11:10:22;97751.80;;;17.21;72.38
62038;BME280;47991;42.974;12.082;2023-05-19T11:12:49;97748.37;;;17.06;72.36
62038;BME280;47991;42.974;12.082;2023-05-19T11:15:17;97745.17;;;16.95;72.56
62038;BME280;47991;42.974;12.082;2023-05-19T11:17:47;97746.65;;;16.95;73.27
62038;BME280;47991;42.974;12.082;2023-05-19T11:20:25;97746.65;;;16.92;72.90
62038;BME280;47991;42.974;12.082;2023-05-19T11:23:15;97746.02;;;16.76;73.28
62038;BME280;47991;42.974;12.082;2023-05-19T11:25:47;97740.92;;;16.68;73.09
62038;BME280;47991;42.974;12.082;2023-05-19T11:28:18;97738.23;;;16.65;73.35
62038;BME280;47991;42.974;12.082;2023-05-19T11:30:47;97740.08;;;16.74;74.47
62038;BME280;47991;42.974;12.082;2023-05-19T11:33:18;97741.54;;;16.80;74.40
62038;BME280;47991;42.974;12.082;2023-05-19T11:35:49;97735.27;;;16.80;74.69
62038;BME280;47991;42.974;12.082;2023-05-19T11:38:18;97734.95;;;16.93;74.91
62038;BME280;47991;42.974;12.082;2023-05-19T11:40:47;97734.89;;;17.11;75.06
62038;BME280;47991;42.974;12.082;2023-05-19T11:43:15;97736.36;;;17.23;75.43
62038;BME280;47991;42.974;12.082;2023-05-19T11:45:42;97738.55;;;17.28;76.26
62038;BME280;47991;42.974;12.082;2023-05-19T11:48:12;97736.70;;;17.42;76.22
62038;BME280;47991;42.974;12.082;2023-05-19T11:50:41;97727.83;;;17.53;75.32
62038;BME280;47991;42.974;12.082;2023-05-19T11:53:13;97717.30;;;17.60;74.84
62038;BME280;47991;42.974;12.082;2023-05-19T11:55:41;97713.69;;;17.60;74.30
62038;BME280;47991;42.974;12.082;2023-05-19T11:58:10;97714.55;;;17.64;74.83
62038;BME280;47991;42.974;12.082;2023-05-19T12:00:38;97713.41;;;17.68;74.76
62038;BME280;47991;42.974;12.082;2023-05-19T12:03:06;97714.23;;;17.69;75.06
62038;BME280;47991;42.974;12.082;2023-05-19T12:05:36;97718.84;;;17.64;75.12
62038;BME280;47991;42.974;12.082;2023-05-19T12:08:04;97715.84;;;17.57;75.30
62038;BME280;47991;42.974;12.082;2023-05-19T12:10:31;97717.42;;;17.48;75.95
62038;BME280;47991;42.974;12.082;2023-05-19T12:13:01;97723.92;;;17.40;75.41
62038;BME280;47991;42.974;12.082;2023-05-19T12:15:30;97725.76;;;17.21;75.80
62038;BME280;47991;42.974;12.082;2023-05-19T12:17:59;97720.56;;;17.11;75.64
62038;BME280;47991;42.974;12.082;2023-05-19T12:20:28;97719.68;;;17.01;75.77
62038;BME280;47991;42.974;12.082;2023-05-19T12:22:57;97716.48;;;16.91;75.68
62038;BME280;47991;42.974;12.082;2023-05-19T12:25:27;97709.96;;;16.90;76.40
62038;BME280;47991;42.974;12.082;2023-05-19T12:28:01;97707.20;;;16.91;77.77
62038;BME280;47991;42.974;12.082;2023-05-19T12:30:31;97704.02;;;16.91;78.20
62038;BME280;47991;42.974;12.082;2023-05-19T12:33:00;97699.61;;;16.90;78.67
62038;BME280;47991;42.974;12.082;2023-05-19T12:35:29;97694.11;;;16.93;78.69
62038;BME280;47991;42.974;12.082;2023-05-19T12:38:02;97690.66;;;16.97;79.41
62038;BME280;47991;42.974;12.082;2023-05-19T12:40:29;97688.55;;;17.02;80.68
62038;BME280;47991;42.974;12.082;2023-05-19T12:42:56;97687.58;;;16.91;80.38
62038;BME280;47991;42.974;12.082;2023-05-19T12:45:26;97677.18;;;16.85;80.43
62038;BME280;47991;42.974;12.082;2023-05-19T12:47:53;97670.17;;;16.93;80.02
62038;BME280;47991;42.974;12.082;2023-05-19T12:50:29;97673.27;;;16.95;80.43
62038;BME280;47991;42.974;12.082;2023-05-19T12:52:56;97676.95;;;16.96;79.76
62038;BME280;47991;42.974;12.082;2023-05-19T12:55:24;97672.92;;;16.84;79.90
62038;BME280;47991;42.974;12.082;2023-05-19T12:57:51;97668.38;;;16.73;80.77
62038;BME280;47991;42.974;12.082;2023-05-19T13:00:22;97661.15;;;16.84;82.40
62038;BME280;47991;42.974;12.082;2023-05-19T13:03:03;97663.38;;;16.99;81.47
62038;BME280;47991;42.974;12.082;2023-05-19T13:05:38;97666.13;;;16.88;80.17
62038;BME280;47991;42.974;12.082;2023-05-19T13:08:08;97672.83;;;16.90;79.84
62038;BME280;47991;42.974;12.082;2023-05-19T13:10:36;97675.89;;;16.86;80.22
62038;BME280;47991;42.974;12.082;2023-05-19T13:13:04;97675.88;;;16.96;80.55
62038;BME280;47991;42.974;12.082;2023-05-19T13:15:33;97669.30;;;17.02;80.30
62038;BME280;47991;42.974;12.082;2023-05-19T13:18:02;97661.45;;;17.08;78.49
62038;BME280;47991;42.974;12.082;2023-05-19T13:20:30;97659.90;;;17.10;79.30
62038;BME280;47991;42.974;12.082;2023-05-19T13:22:57;97652.33;;;17.17;78.80
62038;BME280;47991;42.974;12.082;2023-05-19T13:25:25;97644.85;;;17.20;78.85
62038;BME280;47991;42.974;12.082;2023-05-19T13:27:52;97635.77;;;17.16;78.34
62038;BME280;47991;42.974;12.082;2023-05-19T13:30:24;97636.02;;;17.19;77.76
62038;BME280;47991;42.974;12.082;2023-05-19T13:32:51;97635.52;;;17.12;76.50
62038;BME280;47991;42.974;12.082;2023-05-19T13:35:18;97637.89;;;17.08;77.50
62038;BME280;47991;42.974;12.082;2023-05-19T13:37:45;97640.17;;;17.02;76.15